Time;durP1;ratioP1;P1;durP2;ratioP2;P2;SDS_P1;SDS_P2;PMS_P1;PMS_P2;Temp;Humidity;BMP_temperature;BMP_pressure;BME280_temperature;BME280_humidity;BME280_pressure;Samples;Min_cycle;Max_cycle;Signal;HPM_P1;HPM_P2
2023/02/21 02:15:31;;;;;;;4.87;1.47;;;;;;;-145.69;100.00;52505.78;5139538;27;20608;-84
2023/02/21 02:18:32;;;;;;;2.67;1.20;;;;;;;-145.69;100.00;52503.81;5138688;27;20215;-84
2023/02/21 02:21:19;;;;;;;5.43;1.10;;;;;;;-145.69;100.00;52476.06;5137788;27;20203;-84
2023/02/21 02:24:27;;;;;;;5.33;1.40;;;;;;;-145.69;100.00;52480.03;5137581;27;20200;-84
2023/02/21 02:27:20;;;;;;;1.10;1.00;;;;;;;-145.69;100.00;52499.84;5137457;27;20223;-84
2023/02/21 02:30:22;;;;;;;1.33;0.90;;;;;;;-145.69;100.00;52503.81;5137647;27;20198;-84
2023/02/21 02:33:46;;;;;;;5.83;1.20;;;;;;;-145.69;100.00;52487.97;5135999;27;20200;-84
2023/02/21 02:36:29;;;;;;;2.83;1.30;;;;;;;-145.69;100.00;52495.88;5054622;28;20203;-84
2023/02/21 02:39:13;;;;;;;1.57;0.90;;;;;;;-145.69;100.00;52495.88;5045740;28;20200;-84
2023/02/21 02:41:49;;;;;;;4.60;1.23;;;;;;;-145.69;100.00;52499.84;5108137;27;20288;-84
2023/02/21 02:44:28;;;;;;;3.47;1.10;;;;;;;-145.69;100.00;52480.03;5137530;27;20219;-84
2023/02/21 02:46:59;;;;;;;1.67;1.20;;;;;;;-145.69;100.00;52482.00;5137018;27;20323;-84
2023/02/21 02:49:29;;;;;;;5.17;1.10;;;;;;;-145.69;100.00;52487.97;5137682;27;20232;-85
2023/02/21 02:52:03;;;;;;;2.90;1.30;;;;;;;-145.69;100.00;52499.84;5137294;27;20204;-84
2023/02/21 02:54:31;;;;;;;5.70;1.27;;;;;;;-145.69;100.00;52515.69;5137478;27;20230;-84
2023/02/21 02:57:03;;;;;;;2.20;1.13;;;;;;;-145.69;100.00;52505.78;5136994;27;20208;-84
2023/02/21 02:59:32;;;;;;;2.60;1.40;;;;;;;-145.69;100.00;52489.94;5137184;27;20200;-85
2023/02/21 03:02:14;;;;;;;2.90;1.07;;;;;;;-145.69;100.00;52507.75;5137064;27;20197;-84
2023/02/21 03:04:57;;;;;;;2.93;1.20;;;;;;;-145.69;100.00;52499.84;5137165;27;20264;-84
2023/02/21 03:07:33;;;;;;;1.93;0.80;;;;;;;-145.69;100.00;52515.69;5136946;27;20220;-83
2023/02/21 03:10:08;;;;;;;1.20;1.10;;;;;;;-145.69;100.00;52491.91;5136897;27;20208;-84
2023/02/21 03:12:41;;;;;;;3.47;1.77;;;;;;;-145.69;100.00;52527.56;5136816;27;20207;-84
2023/02/21 03:15:14;;;;;;;5.80;1.23;;;;;;;-145.69;100.00;52485.97;5137170;27;20208;-84
2023/02/21 03:17:46;;;;;;;2.87;1.07;;;;;;;-145.69;100.00;52517.66;5136953;27;20193;-84
2023/02/21 03:20:15;;;;;;;3.03;1.40;;;;;;;-145.69;100.00;52527.56;5136803;27;20216;-84
2023/02/21 03:22:45;;;;;;;5.33;1.10;;;;;;;-145.69;100.00;52505.78;5137330;27;20713;-83
2023/02/21 03:25:14;;;;;;;3.33;1.20;;;;;;;-145.69;100.00;52503.81;5137268;27;20197;-84
2023/02/21 03:27:43;;;;;;;4.53;1.20;;;;;;;-145.69;100.00;52517.66;5136394;27;20224;-84
2023/02/21 03:30:11;;;;;;;5.50;1.10;;;;;;;-145.69;100.00;52503.81;5136295;27;20188;-85
2023/02/21 03:32:41;;;;;;;3.27;1.20;;;;;;;-145.69;100.00;52507.75;5135971;27;20667;-85
2023/02/21 03:35:08;;;;;;;3.07;1.00;;;;;;;-145.69;100.00;52478.06;5136295;27;20228;-85
2023/02/21 03:37:38;;;;;;;8.70;1.40;;;;;;;-145.69;100.00;52527.56;5136633;27;20197;-84
2023/02/21 03:40:08;;;;;;;3.07;1.43;;;;;;;-145.69;100.00;52499.84;5136482;27;20185;-84
2023/02/21 03:42:35;;;;;;;2.67;1.40;;;;;;;-145.69;100.00;52525.59;5136163;27;20204;-85
2023/02/21 03:45:01;;;;;;;3.20;1.53;;;;;;;-145.69;100.00;52533.50;5135933;27;20682;-84
2023/02/21 03:47:28;;;;;;;1.93;1.20;;;;;;;-145.69;100.00;52519.63;5136107;27;20229;-84
2023/02/21 03:49:54;;;;;;;1.40;1.20;;;;;;;-145.69;100.00;52501.81;5136104;27;20196;-84
2023/02/21 03:52:21;;;;;;;4.87;1.90;;;;;;;-145.69;100.00;52515.69;5136066;27;20197;-84
2023/02/21 03:54:47;;;;;;;4.93;1.30;;;;;;;-145.69;100.00;52484.00;5135927;27;20231;-84
2023/02/21 03:57:15;;;;;;;5.13;1.40;;;;;;;-145.69;100.00;52468.16;5135969;27;20204;-84
2023/02/21 03:59:42;;;;;;;9.07;1.83;;;;;;;-145.69;100.00;52501.81;5135760;27;20205;-84
2023/02/21 04:02:08;;;;;;;6.80;1.50;;;;;;;-145.69;100.00;52485.97;5136005;27;20201;-85
2023/02/21 04:04:35;;;;;;;1.83;1.20;;;;;;;-145.69;100.00;52474.09;5135778;27;20229;-85
2023/02/21 04:07:01;;;;;;;1.93;1.27;;;;;;;-145.69;100.00;52485.97;5135841;27;20701;-85
2023/02/21 04:09:28;;;;;;;3.20;1.30;;;;;;;-145.69;100.00;52527.56;5135454;27;20200;-84
2023/02/21 04:11:56;;;;;;;4.07;1.60;;;;;;;-145.69;100.00;52476.06;5135558;27;20196;-84
2023/02/21 04:14:23;;;;;;;3.53;1.67;;;;;;;-145.69;100.00;52515.69;5135525;27;20533;-84
2023/02/21 04:16:50;;;;;;;3.87;1.40;;;;;;;-145.69;100.00;52527.56;5135884;27;20197;-85
2023/02/21 04:19:17;;;;;;;6.97;1.60;;;;;;;-145.69;100.00;52511.72;5135436;27;20273;-85
2023/02/21 04:21:44;;;;;;;4.60;2.07;;;;;;;-145.69;100.00;52487.97;5135559;27;20571;-84
2023/02/21 04:24:10;;;;;;;5.97;1.90;;;;;;;-145.69;100.00;52485.97;5134971;27;20204;-85
2023/02/21 04:26:36;;;;;;;5.83;1.73;;;;;;;-145.69;100.00;52487.97;5135350;27;20225;-84
2023/02/21 04:29:04;;;;;;;7.60;1.80;;;;;;;-145.69;100.00;52523.59;5135429;27;20211;-85
2023/02/21 04:31:32;;;;;;;9.37;2.10;;;;;;;-145.69;100.00;52513.69;5135516;27;20193;-84
2023/02/21 04:33:58;;;;;;;3.43;1.50;;;;;;;-145.69;100.00;52503.81;5135242;27;20533;-84
2023/02/21 04:36:25;;;;;;;4.47;1.80;;;;;;;-145.69;100.00;52521.63;5135313;27;20197;-84
2023/02/21 04:38:52;;;;;;;5.17;1.63;;;;;;;-145.69;100.00;52527.56;5134690;27;20197;-84
2023/02/21 04:41:19;;;;;;;6.70;1.60;;;;;;;-145.69;100.00;52527.56;5114432;28;20209;-85
2023/02/21 04:43:45;;;;;;;6.63;2.10;;;;;;;-145.69;100.00;52485.97;5114634;28;20204;-84
2023/02/21 04:46:15;;;;;;;9.60;2.10;;;;;;;-145.69;100.00;52525.59;5114675;28;20200;-83
2023/02/21 04:48:43;;;;;;;7.03;1.63;;;;;;;-145.69;100.00;52515.69;5127567;27;20204;-85
2023/02/21 04:51:10;;;;;;;5.63;1.63;;;;;;;-145.69;100.00;52511.72;5135024;27;20197;-85
2023/02/21 04:53:36;;;;;;;6.87;2.13;;;;;;;-145.69;100.00;52493.91;5134891;27;20192;-84
2023/02/21 04:56:03;;;;;;;2.63;1.73;;;;;;;-145.69;100.00;52499.84;5134818;27;20208;-84
2023/02/21 04:58:30;;;;;;;5.53;1.60;;;;;;;-145.69;100.00;52529.53;5135105;27;20200;-84
2023/02/21 05:00:56;;;;;;;2.80;1.60;;;;;;;-145.69;100.00;52489.94;5135019;27;20196;-85
2023/02/21 05:03:23;;;;;;;5.93;1.83;;;;;;;-145.69;100.00;52521.63;5134788;27;20331;-84
2023/02/21 05:05:51;;;;;;;6.03;1.83;;;;;;;-145.69;100.00;52499.84;5135304;27;20197;-85
2023/02/21 05:08:18;;;;;;;2.83;1.67;;;;;;;-145.69;100.00;52499.84;5135024;27;20232;-84
2023/02/21 05:10:45;;;;;;;7.30;2.00;;;;;;;-145.69;100.00;52484.00;5134174;27;20200;-84
2023/02/21 05:13:11;;;;;;;4.00;1.50;;;;;;;-145.69;100.00;52495.88;5134869;27;20189;-85
2023/02/21 05:15:38;;;;;;;7.13;2.00;;;;;;;-145.69;100.00;52509.75;5134722;28;20196;-84
2023/02/21 05:18:04;;;;;;;5.70;1.60;;;;;;;-145.69;100.00;52527.56;5134452;27;20215;-84
2023/02/21 05:20:31;;;;;;;8.70;1.73;;;;;;;-145.69;100.00;52499.84;5134483;28;20613;-84
2023/02/21 05:22:59;;;;;;;3.00;1.80;;;;;;;-145.69;100.00;52515.69;5134577;28;20283;-85
2023/02/21 05:25:25;;;;;;;5.07;1.73;;;;;;;-145.69;100.00;52505.78;5134236;28;20207;-85
2023/02/21 05:27:53;;;;;;;5.40;1.80;;;;;;;-145.69;100.00;52525.59;5134305;27;20224;-85
2023/02/21 05:30:22;;;;;;;7.17;1.90;;;;;;;-145.69;100.00;52517.66;5134541;27;20196;-85
2023/02/21 05:32:49;;;;;;;4.87;1.47;;;;;;;-145.69;100.00;52535.47;5134520;27;20205;-85
2023/02/21 05:35:17;;;;;;;4.00;1.80;;;;;;;-145.69;100.00;52507.75;5134253;27;20236;-85
2023/02/21 05:37:43;;;;;;;6.60;1.90;;;;;;;-145.69;100.00;52535.47;5136752;27;20200;-84
2023/02/21 05:40:13;;;;;;;6.70;1.70;;;;;;;-145.69;100.00;52519.63;5137998;27;20199;-85
2023/02/21 05:42:39;;;;;;;4.10;1.70;;;;;;;-145.69;100.00;52519.63;5138404;27;20204;-85
2023/02/21 05:45:06;;;;;;;4.73;1.90;;;;;;;-145.69;100.00;52543.41;5138133;27;20200;-85
2023/02/21 05:47:34;;;;;;;6.93;2.10;;;;;;;-145.69;100.00;52511.72;5138121;27;20232;-84
2023/02/21 05:50:00;;;;;;;7.03;2.00;;;;;;;-145.69;100.00;52521.63;5138282;27;20224;-84
2023/02/21 05:52:27;;;;;;;3.80;2.13;;;;;;;-145.69;100.00;52511.72;5138371;27;20200;-85
2023/02/21 05:54:53;;;;;;;2.73;1.70;;;;;;;-145.69;100.00;52523.59;5138467;27;20605;-85
2023/02/21 05:57:21;;;;;;;6.43;1.80;;;;;;;-145.69;100.00;52499.84;5137916;27;20195;-84
2023/02/21 05:59:48;;;;;;;5.03;2.00;;;;;;;-145.69;100.00;52533.50;5138166;27;20205;-84
2023/02/21 06:02:14;;;;;;;3.23;1.70;;;;;;;-145.69;100.00;52503.81;5138117;27;20571;-84
2023/02/21 06:04:41;;;;;;;6.43;1.80;;;;;;;-145.69;100.00;52507.75;5137694;27;20239;-84
2023/02/21 06:07:07;;;;;;;2.20;1.50;;;;;;;-145.69;100.00;52523.59;5138112;27;20235;-84
2023/02/21 06:09:34;;;;;;;5.63;1.50;;;;;;;-145.69;100.00;52511.72;5137849;27;20720;-84
2023/02/21 06:12:00;;;;;;;2.57;1.77;;;;;;;-145.69;100.00;52527.56;5138265;27;20199;-85
2023/02/21 06:14:28;;;;;;;5.53;1.57;;;;;;;-145.69;100.00;52523.59;5136892;27;20203;-84
2023/02/21 06:16:55;;;;;;;4.97;1.83;;;;;;;-145.69;100.00;52491.91;5137861;27;20207;-85
2023/02/21 06:19:21;;;;;;;6.50;1.80;;;;;;;-145.69;100.00;52515.69;5137611;27;20200;-85
2023/02/21 06:21:48;;;;;;;2.70;1.33;;;;;;;-145.69;100.00;52507.75;5137697;27;20201;-85
2023/02/21 06:24:15;;;;;;;5.20;2.00;;;;;;;-145.69;100.00;52497.84;5137841;27;20201;-84
2023/02/21 06:26:41;;;;;;;3.07;1.67;;;;;;;-145.69;100.00;52507.75;5137735;27;20203;-84
2023/02/21 06:29:08;;;;;;;3.90;1.70;;;;;;;-145.69;100.00;52527.56;5137572;27;20228;-84
2023/02/21 06:31:36;;;;;;;3.17;1.77;;;;;;;-145.69;100.00;52507.75;5137360;27;20205;-84
2023/02/21 06:34:03;;;;;;;2.37;1.30;;;;;;;-145.69;100.00;52511.72;5137013;27;20272;-83
2023/02/21 06:36:30;;;;;;;4.33;1.53;;;;;;;-145.69;100.00;52527.56;5137994;27;20204;-84
2023/02/21 06:38:57;;;;;;;2.57;1.50;;;;;;;-145.69;100.00;52503.81;5138542;27;20197;-83
2023/02/21 06:41:26;;;;;;;3.50;1.80;;;;;;;-145.69;100.00;52497.84;5135244;27;20200;-83
2023/02/21 06:43:53;;;;;;;7.83;2.03;;;;;;;-145.69;100.00;52507.75;5117632;28;20205;-83
2023/02/21 06:46:22;;;;;;;4.50;1.63;;;;;;;-145.69;100.00;52511.72;5115933;28;20201;-83
2023/02/21 06:48:50;;;;;;;5.43;1.60;;;;;;;-145.69;100.00;52499.84;5117611;28;20232;-84
2023/02/21 06:51:17;;;;;;;4.50;1.70;;;;;;;-145.69;100.00;52513.69;5132218;27;20645;-84
2023/02/21 06:53:49;;;;;;;9.33;1.93;;;;;;;-145.69;100.00;52523.59;5137432;27;20203;-84
2023/02/21 06:56:16;;;;;;;8.23;1.80;;;;;;;-145.69;100.00;52523.59;5137886;27;20212;-83
2023/02/21 06:58:42;;;;;;;8.03;2.03;;;;;;;-145.69;100.00;52485.97;5137936;27;20193;-82
2023/02/21 07:01:09;;;;;;;6.13;1.80;;;;;;;-145.69;100.00;52533.50;5138679;27;20193;-82
2023/02/21 07:03:39;;;;;;;3.33;1.87;;;;;;;-145.69;100.00;52511.72;5137149;27;20225;-82
2023/02/21 07:06:07;;;;;;;5.07;1.60;;;;;;;-145.69;100.00;52523.59;5139940;27;20204;-84
2023/02/21 07:08:33;;;;;;;3.57;1.60;;;;;;;-145.69;100.00;52535.47;5139983;27;20231;-84
2023/02/21 07:11:00;;;;;;;4.30;2.10;;;;;;;-145.69;100.00;52541.44;5142315;27;20197;-83
2023/02/21 07:13:26;;;;;;;6.17;1.90;;;;;;;-145.69;100.00;52521.63;5140542;27;20670;-83
2023/02/21 07:15:53;;;;;;;5.67;1.80;;;;;;;-145.69;100.00;52468.16;5140078;27;20253;-83
2023/02/21 07:18:20;;;;;;;6.17;1.40;;;;;;;-145.69;100.00;52515.69;5139631;27;20200;-83
2023/02/21 07:20:46;;;;;;;3.87;1.73;;;;;;;-145.69;100.00;52505.78;5139912;27;20287;-82
2023/02/21 07:23:14;;;;;;;2.80;1.57;;;;;;;-145.69;100.00;52464.19;5138323;27;20265;-83
2023/02/21 07:25:40;;;;;;;2.67;1.40;;;;;;;-145.69;100.00;52493.91;5139663;27;20201;-83
2023/02/21 07:28:07;;;;;;;2.00;1.40;;;;;;;-145.69;100.00;52491.91;5138988;27;20288;-83
2023/02/21 07:30:34;;;;;;;6.40;1.80;;;;;;;-145.69;100.00;52484.00;5138257;27;20219;-83
2023/02/21 07:33:01;;;;;;;3.10;1.40;;;;;;;-145.69;100.00;52541.44;5137575;27;20650;-83
2023/02/21 07:35:27;;;;;;;7.23;2.17;;;;;;;-145.69;100.00;52503.81;5137482;27;20200;-83
2023/02/21 07:37:54;;;;;;;6.30;1.47;;;;;;;-145.69;100.00;52507.75;5138088;27;20196;-83
2023/02/21 07:40:22;;;;;;;5.63;1.50;;;;;;;-145.69;100.00;52537.47;5137088;27;20656;-83
2023/02/21 07:42:48;;;;;;;3.97;1.57;;;;;;;-145.69;100.00;52489.94;5137038;27;20207;-83
2023/02/21 07:45:16;;;;;;;5.43;1.70;;;;;;;-145.69;100.00;52499.84;5138001;27;20197;-83
2023/02/21 07:47:44;;;;;;;4.23;1.60;;;;;;;-145.69;100.00;52476.06;5138296;27;20236;-85
2023/02/21 07:50:12;;;;;;;3.43;1.47;;;;;;;-145.69;100.00;52491.91;5137753;27;20203;-85
2023/02/21 07:52:38;;;;;;;4.87;1.97;;;;;;;-145.69;100.00;52480.03;5138179;27;20196;-85
2023/02/21 07:55:06;;;;;;;3.20;1.60;;;;;;;-145.69;100.00;52480.03;5139399;27;20559;-85
2023/02/21 07:57:33;;;;;;;2.43;1.30;;;;;;;-145.69;100.00;52484.00;5138646;27;20196;-85
2023/02/21 08:00:00;;;;;;;6.27;1.60;;;;;;;-145.69;100.00;52495.88;5138730;27;20203;-85
2023/02/21 08:02:26;;;;;;;3.93;1.40;;;;;;;-145.69;100.00;52478.06;5139479;27;20235;-84
2023/02/21 08:04:53;;;;;;;4.00;1.60;;;;;;;-145.69;100.00;52513.69;5138955;27;20232;-84
2023/02/21 08:07:19;;;;;;;3.13;1.67;;;;;;;-145.69;100.00;52487.97;5139276;27;20275;-86
2023/02/21 08:09:46;;;;;;;5.33;1.40;;;;;;;-145.69;100.00;52472.13;5139778;27;20203;-85
2023/02/21 08:12:13;;;;;;;2.57;1.07;;;;;;;-145.69;100.00;52491.91;5140032;27;20204;-85
2023/02/21 08:14:40;;;;;;;2.10;1.07;;;;;;;-145.69;100.00;52464.19;5139978;27;20192;-85
2023/02/21 08:17:07;;;;;;;1.67;0.90;;;;;;;-145.69;100.00;52484.00;5139353;27;20193;-85
2023/02/21 08:19:33;;;;;;;3.17;1.00;;;;;;;-145.69;100.00;52468.16;5138267;27;20236;-84
2023/02/21 08:22:00;;;;;;;1.70;0.90;;;;;;;-145.69;100.00;52466.16;5138691;27;20211;-85
2023/02/21 08:24:26;;;;;;;2.10;1.00;;;;;;;-145.69;100.00;52482.00;5139331;27;20193;-85
2023/02/21 08:26:53;;;;;;;2.83;1.07;;;;;;;-145.69;100.00;52491.91;5138100;27;20711;-84
2023/02/21 08:29:19;;;;;;;2.33;0.80;;;;;;;-145.69;100.00;52480.03;5137679;27;20584;-85
2023/02/21 08:31:47;;;;;;;4.30;1.00;;;;;;;-145.69;100.00;52460.22;5137401;27;20204;-86
2023/02/21 08:34:14;;;;;;;5.60;1.30;;;;;;;-145.69;100.00;52432.50;5137998;27;20207;-85
2023/02/21 08:36:43;;;;;;;3.47;1.43;;;;;;;-145.69;100.00;52458.25;5137397;27;20197;-85
2023/02/21 08:39:10;;;;;;;2.27;1.00;;;;;;;-145.69;100.00;52458.25;5138121;27;20208;-85
2023/02/21 08:41:38;;;;;;;3.20;1.13;;;;;;;-145.69;100.00;52482.00;5137340;27;20195;-85
2023/02/21 08:44:05;;;;;;;6.90;1.60;;;;;;;-145.69;100.00;52466.16;5137540;27;20265;-85
2023/02/21 08:46:31;;;;;;;1.53;1.03;;;;;;;-145.69;100.00;52456.28;5136945;27;20241;-86
2023/02/21 08:48:59;;;;;;;3.60;0.90;;;;;;;-145.69;100.00;52428.53;5136500;27;20235;-85
2023/02/21 08:51:26;;;;;;;2.40;0.80;;;;;;;-145.69;100.00;52420.63;5136122;27;20200;-86
2023/02/21 08:53:53;;;;;;;2.77;0.90;;;;;;;-145.69;100.00;52466.16;5135530;27;20196;-86
2023/02/21 08:56:20;;;;;;;1.50;0.80;;;;;;;-145.69;99.56;52438.44;5135041;27;20208;-87
2023/02/21 08:58:46;;;;;;;3.60;1.03;;;;;;;-145.69;92.73;52450.31;5134871;27;20228;-86
2023/02/21 09:01:13;;;;;;;1.90;0.90;;;;;;;-145.69;90.85;52458.25;5135076;27;20201;-85
2023/02/21 09:03:39;;;;;;;1.73;1.07;;;;;;;-145.69;85.99;52412.69;5134678;27;20231;-86
2023/02/21 09:06:07;;;;;;;1.93;1.00;;;;;;;-145.69;87.19;52412.69;5134231;27;20204;-84
2023/02/21 09:08:34;;;;;;;1.97;0.73;;;;;;;-145.69;86.61;52398.84;5134596;27;20262;-83
2023/02/21 09:11:01;;;;;;;2.00;1.00;;;;;;;-145.69;83.61;52446.38;5136915;27;20673;-82
2023/02/21 09:13:27;;;;;;;3.83;0.90;;;;;;;-145.69;82.28;52454.28;5141132;27;20204;-83
2023/02/21 09:15:54;;;;;;;1.10;0.70;;;;;;;-145.69;77.62;52448.34;5141218;27;20200;-84
2023/02/21 09:18:21;;;;;;;1.23;0.80;;;;;;;-145.69;76.41;52422.59;5141828;27;20196;-84
2023/02/21 09:20:52;;;;;;;9.60;1.20;;;;;;;-145.69;72.88;52414.69;5142702;27;20548;-85
2023/02/21 09:23:21;;;;;;;4.67;1.13;;;;;;;-145.69;70.96;52438.44;5143073;27;20224;-83
2023/02/21 09:25:48;;;;;;;0.80;0.80;;;;;;;-145.69;58.54;52373.09;5141048;27;20201;-83
2023/02/21 09:28:15;;;;;;;0.70;0.70;;;;;;;-145.69;57.94;52392.91;5140696;27;20583;-84
2023/02/21 09:30:41;;;;;;;1.03;0.70;;;;;;;-145.69;54.89;52384.97;5140717;27;20192;-83
2023/02/21 09:33:09;;;;;;;1.27;0.80;;;;;;;-145.69;52.20;52416.66;5139357;27;20203;-83
2023/02/21 09:35:36;;;;;;;1.30;0.73;;;;;;;-145.69;53.42;52386.97;5136221;27;20208;-83
2023/02/21 09:38:05;;;;;;;1.20;0.97;;;;;;;-145.69;56.31;52404.78;5147344;27;20188;-85
2023/02/21 09:40:39;;;;;;;0.70;0.70;;;;;;;-145.69;56.60;52400.81;5141017;27;20558;-85
2023/02/21 09:43:13;;;;;;;4.10;1.37;;;;;;;-145.69;54.66;52408.75;5143257;27;20205;-90
2023/02/21 09:45:41;;;;;;;4.47;0.90;;;;;;;-145.69;49.46;52400.81;5141971;27;20185;-88
2023/02/21 09:48:12;;;;;;;1.73;0.82;;;;;;;-145.69;47.25;52400.81;5145623;27;20200;-88
2023/02/21 09:50:52;;;;;;;0.93;0.80;;;;;;;-145.69;46.95;52406.75;5147057;27;20231;-85
2023/02/21 09:53:22;;;;;;;2.05;0.60;;;;;;;-145.69;46.30;52377.06;5148773;27;20645;-82
2023/02/21 09:55:53;;;;;;;1.03;0.80;;;;;;;-145.69;46.30;52394.88;5161951;27;20287;-84
2023/02/21 09:58:20;;;;;;;5.57;0.77;;;;;;;-145.69;43.30;52361.22;5150514;27;20200;-88
2023/02/21 10:00:47;;;;;;;1.40;0.70;;;;;;;-145.69;43.81;52357.25;5144171;27;20200;-91
2023/02/21 10:03:32;;;;;;;0.52;0.50;;;;;;;-145.69;42.41;52392.91;5142700;27;20197;-89
2023/02/21 10:06:05;;;;;;;0.82;0.60;;;;;;;-145.69;42.82;52369.13;5141326;27;20671;-85
2023/02/21 10:08:37;;;;;;;1.13;0.60;;;;;;;-145.69;42.98;52379.03;5140834;27;20217;-86
2023/02/21 10:11:30;;;;;;;0.93;0.60;;;;;;;-145.69;41.37;52363.19;5139941;27;20433;-89
2023/02/21 10:14:02;;;;;;;1.02;0.68;;;;;;;-145.69;41.34;52359.22;5142426;27;20639;-87
2023/02/21 10:16:37;;;;;;;0.95;0.60;;;;;;;-145.69;40.65;52379.03;5140912;27;20682;-86
2023/02/21 10:19:08;;;;;;;1.48;0.70;;;;;;;-145.69;40.37;52361.22;5139704;27;20287;-86
2023/02/21 10:21:37;;;;;;;1.08;0.70;;;;;;;-145.69;40.47;52349.31;5140973;27;20200;-87
2023/02/21 10:24:14;;;;;;;4.82;0.70;;;;;;;-145.69;39.93;52329.53;5136974;27;20196;-86
2023/02/21 10:26:47;;;;;;;1.13;0.75;;;;;;;-145.69;39.37;52325.56;5137272;27;20211;-87
2023/02/21 10:29:22;;;;;;;1.25;0.50;;;;;;;-145.69;39.73;52327.53;5132418;27;20221;-85
2023/02/21 10:31:52;;;;;;;1.00;0.50;;;;;;;-145.69;38.33;52347.34;5137286;27;20207;-87
2023/02/21 10:34:23;;;;;;;1.20;0.40;;;;;;;-145.69;38.39;52329.53;5137277;27;20214;-87
2023/02/21 10:36:51;;;;;;;1.85;0.50;;;;;;;-145.69;38.59;52381.00;5137412;27;20530;-87
2023/02/21 10:39:20;;;;;;;2.35;0.60;;;;;;;-145.69;39.19;52343.38;5151690;27;20196;-86
2023/02/21 10:41:50;;;;;;;0.82;0.60;;;;;;;-145.69;38.83;52363.19;5157819;27;20204;-86
2023/02/21 10:44:21;;;;;;;0.65;0.43;;;;;;;-145.69;39.77;52317.66;5157859;27;20226;-86
2023/02/21 10:46:54;;;;;;;0.70;0.40;;;;;;;-145.69;39.79;52345.38;5158321;27;20200;-87
2023/02/21 10:49:27;;;;;;;0.57;0.50;;;;;;;-145.69;39.47;52355.28;5143607;27;20240;-86
2023/02/21 10:52:08;;;;;;;1.30;0.57;;;;;;;-145.69;40.14;52341.41;5137404;27;20292;-86
2023/02/21 10:54:35;;;;;;;3.58;0.50;;;;;;;-145.69;38.52;52305.75;5137277;27;20200;-85
2023/02/21 10:57:07;;;;;;;0.68;0.50;;;;;;;-145.69;38.03;52297.84;5136713;27;20212;-85
2023/02/21 10:59:37;;;;;;;3.33;0.63;;;;;;;-145.69;39.72;52333.47;5136741;27;20227;-85
2023/02/21 11:02:28;;;;;;;1.30;0.77;;;;;;;-145.69;38.85;52329.53;5138787;27;20227;-88
2023/02/21 11:04:55;;;;;;;1.08;0.60;;;;;;;-145.69;38.72;52321.59;5138662;27;20251;-87
2023/02/21 11:07:23;;;;;;;0.60;0.60;;;;;;;-145.69;38.37;52323.59;5137492;27;20200;-85
2023/02/21 11:09:50;;;;;;;1.60;0.65;;;;;;;-145.69;39.30;52309.72;5138236;27;20220;-87
2023/02/21 11:12:22;;;;;;;0.98;0.68;;;;;;;-145.69;40.53;52313.69;5137120;27;20626;-86
2023/02/21 11:15:07;;;;;;;0.90;0.60;;;;;;;-145.69;39.43;52295.84;5153656;27;20196;-87
2023/02/21 11:17:34;;;;;;;1.33;0.60;;;;;;;-145.69;39.55;52305.75;5157301;27;20207;-86
2023/02/21 11:20:16;;;;;;;1.90;0.93;;;;;;;-145.69;40.35;52333.47;5139060;27;20192;-86
2023/02/21 11:22:46;;;;;;;1.40;0.60;;;;;;;-145.69;40.53;52291.91;5136477;27;20196;-87
2023/02/21 11:25:21;;;;;;;1.23;0.70;;;;;;;-145.69;39.51;52297.84;5156152;27;20188;-85
2023/02/21 11:28:01;;;;;;;1.85;0.88;;;;;;;-145.69;39.68;52325.56;5149049;27;20196;-85
2023/02/21 11:30:30;;;;;;;1.00;0.70;;;;;;;-145.69;39.17;52282.00;5116051;28;20228;-85
2023/02/21 11:32:59;;;;;;;0.70;0.68;;;;;;;-145.69;39.53;52317.66;5115567;28;20382;-85
2023/02/21 11:35:28;;;;;;;1.42;0.98;;;;;;;-145.69;40.23;52323.59;5128415;27;20196;-86
2023/02/21 11:37:57;;;;;;;4.00;1.50;;;;;;;-145.69;38.65;52305.75;5135970;27;20192;-86
2023/02/21 11:40:34;;;;;;;1.58;1.00;;;;;;;-145.69;40.07;52311.69;5132227;27;20593;-86
2023/02/21 11:43:25;;;;;;;1.67;0.90;;;;;;;-145.69;38.78;52280.00;5136032;27;20249;-86
2023/02/21 11:46:04;;;;;;;2.63;1.00;;;;;;;-145.69;39.34;52305.75;5115417;28;20250;-85
2023/02/21 11:48:35;;;;;;;2.47;1.20;;;;;;;-145.69;38.79;52301.81;5122774;27;20218;-85
2023/02/21 11:51:06;;;;;;;1.77;0.90;;;;;;;-145.69;39.64;52315.66;5156929;27;20730;-85
2023/02/21 11:53:40;;;;;;;3.15;1.10;;;;;;;-145.69;39.14;52299.81;5152770;27;20238;-85
2023/02/21 11:56:20;;;;;;;1.75;0.98;;;;;;;-145.69;37.72;52258.22;5135640;27;20200;-86
2023/02/21 11:58:59;;;;;;;1.65;0.80;;;;;;;-145.69;38.62;52305.75;5135465;27;20338;-86
2023/02/21 12:01:30;;;;;;;2.15;0.77;;;;;;;-145.69;37.99;52293.88;5135152;27;20231;-85
2023/02/21 12:04:21;;;;;;;1.58;0.93;;;;;;;-145.69;38.52;52305.75;5134787;27;20699;-85
2023/02/21 12:06:57;;;;;;;2.88;0.75;;;;;;;-145.69;39.88;52272.09;5135222;27;20201;-84
2023/02/21 12:09:30;;;;;;;1.67;1.00;;;;;;;-145.69;39.67;52305.75;5145196;27;20215;-85
2023/02/21 12:12:15;;;;;;;2.97;1.67;;;;;;;-145.69;37.93;52266.16;5155833;27;20196;-83
2023/02/21 12:15:00;;;;;;;3.80;0.80;;;;;;;-145.69;37.89;52278.03;5155462;27;20199;-84
2023/02/21 12:17:43;;;;;;;0.95;0.57;;;;;;;-145.69;38.60;52282.00;5155615;27;20650;-86
2023/02/21 12:20:30;;;;;;;2.15;0.55;;;;;;;-145.69;39.55;52297.84;5155793;27;20192;-86
2023/02/21 12:23:07;;;;;;;2.00;0.60;;;;;;;-145.69;38.23;52278.03;5155861;27;20554;-86
2023/02/21 12:25:49;;;;;;;2.85;0.68;;;;;;;-145.69;39.14;52289.91;5136077;27;20192;-86
2023/02/21 12:28:25;;;;;;;1.23;0.80;;;;;;;-145.69;38.83;52283.97;5135277;27;20191;-87
2023/02/21 12:31:06;;;;;;;2.35;0.77;;;;;;;-145.69;37.75;52285.97;5114981;27;20760;-86
2023/02/21 12:33:42;;;;;;;1.65;0.85;;;;;;;-145.69;37.91;52270.13;5117479;27;20201;-85
2023/02/21 12:36:26;;;;;;;6.13;0.80;;;;;;;-145.69;38.52;52303.78;5134792;27;20189;-83
2023/02/21 12:38:59;;;;;;;0.68;0.60;;;;;;;-145.69;37.44;52258.22;5135202;27;20193;-82
2023/02/21 12:41:49;;;;;;;1.98;0.65;;;;;;;-145.69;37.18;52285.97;5126273;27;20207;-83
2023/02/21 12:44:21;;;;;;;3.63;0.75;;;;;;;-145.69;38.85;52289.91;5121774;27;20228;-82
2023/02/21 12:46:54;;;;;;;4.05;1.15;;;;;;;-145.69;37.54;52268.13;5133871;27;20200;-82
2023/02/21 12:49:26;;;;;;;1.15;0.60;;;;;;;-145.69;37.06;52238.44;5134190;27;20216;-84
2023/02/21 12:52:01;;;;;;;0.60;0.50;;;;;;;-145.69;37.24;52287.94;5134093;27;20204;-83
2023/02/21 12:54:42;;;;;;;2.75;0.70;;;;;;;-145.69;37.11;52270.13;5134692;27;20206;-89
2023/02/21 12:57:12;;;;;;;2.00;0.70;;;;;;;-145.69;38.55;52280.00;5132062;27;20195;-88
2023/02/21 12:59:50;;;;;;;3.47;0.80;;;;;;;-145.69;36.83;52258.22;5134865;27;20563;-87
2023/02/21 13:02:26;;;;;;;1.13;0.77;;;;;;;-145.69;37.05;52238.44;5134800;27;20196;-87
2023/02/21 13:04:57;;;;;;;1.02;0.65;;;;;;;-145.69;36.57;52278.03;5144998;27;20230;-84
2023/02/21 13:07:31;;;;;;;3.30;0.70;;;;;;;-145.69;36.50;52270.13;5155631;27;20200;-80
2023/02/21 13:10:04;;;;;;;2.25;0.63;;;;;;;-145.69;38.11;52266.16;5154137;27;20590;-81
2023/02/21 13:12:36;;;;;;;4.53;0.98;;;;;;;-145.69;37.31;52254.28;5154613;27;20202;-81
2023/02/21 13:15:10;;;;;;;0.95;0.65;;;;;;;-145.69;38.17;52240.41;5154110;27;20646;-81
2023/02/21 13:17:39;;;;;;;1.73;0.65;;;;;;;-145.69;36.43;52246.34;5154299;27;20191;-82
2023/02/21 13:20:09;;;;;;;3.22;0.70;;;;;;;-145.69;37.04;52246.34;5153775;27;20200;-82
2023/02/21 13:26:16;;;;;;;0.80;0.70;;;;;;;-145.69;36.31;52254.28;5142604;27;20203;-81
2023/02/21 13:28:44;;;;;;;1.25;0.63;;;;;;;-145.69;36.96;52248.34;5133776;27;20204;-82
2023/02/21 13:31:19;;;;;;;0.60;0.50;;;;;;;-145.69;36.78;52256.25;5133006;27;20710;-81
2023/02/21 13:33:51;;;;;;;1.33;0.70;;;;;;;-145.69;36.68;52218.63;5133535;28;20659;-83
2023/02/21 13:36:26;;;;;;;0.77;0.63;;;;;;;-145.69;36.24;52250.31;5113041;28;20197;-83
2023/02/21 13:39:02;;;;;;;1.13;0.65;;;;;;;-145.69;36.29;52274.06;5113949;27;20211;-83
2023/02/21 13:41:33;;;;;;;0.82;0.60;;;;;;;-145.69;36.55;52222.59;5133135;27;20567;-82
2023/02/21 13:44:06;;;;;;;0.43;0.43;;;;;;;-145.69;36.46;52226.53;5134739;27;20201;-83
2023/02/21 13:47:03;;;;;;;0.70;0.60;;;;;;;-145.69;36.71;52238.44;5154129;27;20199;-82